sensor_id;sensor_type;location;lat;lon;timestamp;pressure;altitude;pressure_sealevel;temperature;humidity
24031;BME280;12240;51.142;22.486;2024-02-26T00:01:50;53535.49;;;-142.79;57.48
24031;BME280;12240;51.142;22.486;2024-02-26T00:04:18;53542.11;;;-142.79;57.46
24031;BME280;12240;51.142;22.486;2024-02-26T00:06:46;53533.41;;;-142.79;57.15
24031;BME280;12240;51.142;22.486;2024-02-26T00:09:13;53528.45;;;-142.79;57.50
24031;BME280;12240;51.142;22.486;2024-02-26T00:11:39;53516.85;;;-142.79;57.93
24031;BME280;12240;51.142;22.486;2024-02-26T00:14:06;53518.92;;;-142.79;58.54
24031;BME280;12240;51.142;22.486;2024-02-26T00:16:33;53521.41;;;-142.79;58.69
24031;BME280;12240;51.142;22.486;2024-02-26T00:19:00;53520.16;;;-142.79;58.61
24031;BME280;12240;51.142;22.486;2024-02-26T00:21:27;53524.72;;;-142.79;59.20
24031;BME280;12240;51.142;22.486;2024-02-26T00:23:54;53527.20;;;-142.79;59.59
24031;BME280;12240;51.142;22.486;2024-02-26T00:26:21;53520.16;;;-142.79;59.86
24031;BME280;12240;51.142;22.486;2024-02-26T00:28:48;53522.65;;;-142.79;60.11
24031;BME280;12240;51.142;22.486;2024-02-26T00:31:16;53521.41;;;-142.79;60.66
24031;BME280;12240;51.142;22.486;2024-02-26T00:33:43;53506.49;;;-142.79;61.22
24031;BME280;12240;51.142;22.486;2024-02-26T00:36:10;53524.71;;;-142.79;61.57
24031;BME280;12240;51.142;22.486;2024-02-26T00:38:38;53517.68;;;-142.79;61.69
24031;BME280;12240;51.142;22.486;2024-02-26T00:41:06;53509.39;;;-142.79;62.38
24031;BME280;12240;51.142;22.486;2024-02-26T00:43:32;53511.46;;;-142.79;62.70
24031;BME280;12240;51.142;22.486;2024-02-26T00:45:59;53506.91;;;-142.79;62.99
24031;BME280;12240;51.142;22.486;2024-02-26T00:48:26;53499.87;;;-142.79;63.63
24031;BME280;12240;51.142;22.486;2024-02-26T00:50:53;53511.88;;;-142.79;64.08
24031;BME280;12240;51.142;22.486;2024-02-26T00:53:20;53501.52;;;-142.79;64.02
24031;BME280;12240;51.142;22.486;2024-02-26T00:55:48;53510.22;;;-142.79;63.53
24031;BME280;12240;51.142;22.486;2024-02-26T00:58:15;53508.15;;;-142.79;63.81
24031;BME280;12240;51.142;22.486;2024-02-26T01:00:41;53505.25;;;-142.79;64.62
24031;BME280;12240;51.142;22.486;2024-02-26T01:03:08;53503.18;;;-142.79;64.26
24031;BME280;12240;51.142;22.486;2024-02-26T01:05:37;53505.67;;;-142.79;64.29
24031;BME280;12240;51.142;22.486;2024-02-26T01:08:05;53506.49;;;-142.79;64.61
24031;BME280;12240;51.142;22.486;2024-02-26T01:10:32;53518.09;;;-142.79;64.69
24031;BME280;12240;51.142;22.486;2024-02-26T01:12:58;53508.98;;;-142.79;64.64
24031;BME280;12240;51.142;22.486;2024-02-26T01:15:25;53514.77;;;-142.79;64.05
24031;BME280;12240;51.142;22.486;2024-02-26T01:17:52;53516.02;;;-142.79;63.36
24031;BME280;12240;51.142;22.486;2024-02-26T01:20:19;53508.57;;;-142.79;63.54
24031;BME280;12240;51.142;22.486;2024-02-26T01:22:46;53509.80;;;-142.79;62.99
24031;BME280;12240;51.142;22.486;2024-02-26T01:25:13;53516.44;;;-142.79;62.96
24031;BME280;12240;51.142;22.486;2024-02-26T01:27:42;53520.57;;;-142.79;62.84
24031;BME280;12240;51.142;22.486;2024-02-26T01:30:10;53520.99;;;-142.79;62.94
24031;BME280;12240;51.142;22.486;2024-02-26T01:32:37;53517.68;;;-142.79;62.59
24031;BME280;12240;51.142;22.486;2024-02-26T01:35:05;53520.57;;;-142.79;63.40
24031;BME280;12240;51.142;22.486;2024-02-26T01:37:36;53501.94;;;-142.79;64.05
24031;BME280;12240;51.142;22.486;2024-02-26T01:40:03;53499.04;;;-142.79;63.38
24031;BME280;12240;51.142;22.486;2024-02-26T01:42:30;53516.02;;;-142.79;62.54
24031;BME280;12240;51.142;22.486;2024-02-26T01:45:00;53522.64;;;-142.79;62.49
24031;BME280;12240;51.142;22.486;2024-02-26T01:47:27;53513.54;;;-142.79;62.68
24031;BME280;12240;51.142;22.486;2024-02-26T01:49:55;53515.61;;;-142.79;62.94
24031;BME280;12240;51.142;22.486;2024-02-26T01:52:22;53517.68;;;-142.79;62.84
24031;BME280;12240;51.142;22.486;2024-02-26T01:54:50;53520.16;;;-142.79;62.76
24031;BME280;12240;51.142;22.486;2024-02-26T01:57:17;53516.85;;;-142.79;63.04
24031;BME280;12240;51.142;22.486;2024-02-26T01:59:44;53516.02;;;-142.79;62.66
24031;BME280;12240;51.142;22.486;2024-02-26T02:02:12;53510.22;;;-142.79;62.48
24031;BME280;12240;51.142;22.486;2024-02-26T02:04:40;53515.20;;;-142.79;62.59
24031;BME280;12240;51.142;22.486;2024-02-26T02:07:07;53516.44;;;-142.79;62.45
24031;BME280;12240;51.142;22.486;2024-02-26T02:09:34;53512.29;;;-142.79;62.28
24031;BME280;12240;51.142;22.486;2024-02-26T02:12:01;53527.20;;;-142.79;61.76
24031;BME280;12240;51.142;22.486;2024-02-26T02:14:28;53530.93;;;-142.79;61.87
24031;BME280;12240;51.142;22.486;2024-02-26T02:16:55;53527.20;;;-142.79;62.08
24031;BME280;12240;51.142;22.486;2024-02-26T02:19:22;53522.23;;;-142.79;62.28
24031;BME280;12240;51.142;22.486;2024-02-26T02:21:48;53530.93;;;-142.79;62.61
24031;BME280;12240;51.142;22.486;2024-02-26T02:24:15;53482.05;;;-142.79;69.16
24031;BME280;12240;51.142;22.486;2024-02-26T02:26:42;53428.22;;;-142.79;88.18
24031;BME280;12240;51.142;22.486;2024-02-26T02:29:09;53396.74;;;-142.79;99.66
24031;BME280;12240;51.142;22.486;2024-02-26T02:31:36;53366.92;;;-142.79;100.00
24031;BME280;12240;51.142;22.486;2024-02-26T02:34:03;53330.89;;;-142.79;100.00
24031;BME280;12240;51.142;22.486;2024-02-26T02:36:30;53314.73;;;-142.79;100.00
24031;BME280;12240;51.142;22.486;2024-02-26T02:38:57;53308.94;;;-142.79;100.00
24031;BME280;12240;51.142;22.486;2024-02-26T02:41:24;53283.26;;;-142.79;100.00
24031;BME280;12240;51.142;22.486;2024-02-26T02:43:53;53281.19;;;-142.79;100.00
24031;BME280;12240;51.142;22.486;2024-02-26T02:46:20;53259.65;;;-142.79;100.00
24031;BME280;12240;51.142;22.486;2024-02-26T02:48:46;53256.34;;;-142.79;100.00
24031;BME280;12240;51.142;22.486;2024-02-26T02:51:14;53253.86;;;-142.79;100.00
24031;BME280;12240;51.142;22.486;2024-02-26T02:53:40;53265.45;;;-142.79;100.00
24031;BME280;12240;51.142;22.486;2024-02-26T02:56:07;53245.16;;;-142.79;100.00
24031;BME280;12240;51.142;22.486;2024-02-26T02:58:34;53247.23;;;-142.79;100.00
24031;BME280;12240;51.142;22.486;2024-02-26T03:03:49;53249.71;;;-142.79;100.00
24031;BME280;12240;51.142;22.486;2024-02-26T03:06:17;53240.19;;;-142.79;100.00
24031;BME280;12240;51.142;22.486;2024-02-26T03:08:44;53257.57;;;-142.79;100.00
24031;BME280;12240;51.142;22.486;2024-02-26T03:11:15;53251.36;;;-142.79;100.00
24031;BME280;12240;51.142;22.486;2024-02-26T03:13:42;53240.18;;;-142.79;100.00
24031;BME280;12240;51.142;22.486;2024-02-26T03:16:09;53234.39;;;-142.79;100.00
24031;BME280;12240;51.142;22.486;2024-02-26T03:18:35;53247.23;;;-142.79;100.00
24031;BME280;12240;51.142;22.486;2024-02-26T03:21:02;53234.39;;;-142.79;100.00
24031;BME280;12240;51.142;22.486;2024-02-26T03:23:29;53245.16;;;-142.79;100.00
24031;BME280;12240;51.142;22.486;2024-02-26T03:25:58;53234.80;;;-142.79;100.00
24031;BME280;12240;51.142;22.486;2024-02-26T03:28:25;53241.01;;;-142.79;100.00
24031;BME280;12240;51.142;22.486;2024-02-26T03:30:51;53229.42;;;-142.79;100.00
24031;BME280;12240;51.142;22.486;2024-02-26T03:33:18;53222.38;;;-142.79;100.00
24031;BME280;12240;51.142;22.486;2024-02-26T03:35:45;53234.80;;;-142.79;100.00
24031;BME280;12240;51.142;22.486;2024-02-26T03:38:13;53228.18;;;-142.79;100.00
24031;BME280;12240;51.142;22.486;2024-02-26T03:40:40;53214.92;;;-142.79;100.00
24031;BME280;12240;51.142;22.486;2024-02-26T03:43:06;53211.61;;;-142.79;100.00
24031;BME280;12240;51.142;22.486;2024-02-26T03:45:34;53221.96;;;-142.79;100.00
24031;BME280;12240;51.142;22.486;2024-02-26T03:48:00;53228.18;;;-142.79;100.00
24031;BME280;12240;51.142;22.486;2024-02-26T03:50:28;53234.80;;;-142.79;100.00
24031;BME280;12240;51.142;22.486;2024-02-26T03:52:54;53217.41;;;-142.79;100.00
24031;BME280;12240;51.142;22.486;2024-02-26T03:55:22;53216.57;;;-142.79;100.00
24031;BME280;12240;51.142;22.486;2024-02-26T03:57:52;53229.42;;;-142.79;100.00
24031;BME280;12240;51.142;22.486;2024-02-26T04:00:19;53219.48;;;-142.79;100.00
24031;BME280;12240;51.142;22.486;2024-02-26T04:02:48;53215.75;;;-142.79;100.00
24031;BME280;12240;51.142;22.486;2024-02-26T04:05:15;53218.65;;;-142.79;100.00
24031;BME280;12240;51.142;22.486;2024-02-26T04:07:42;53224.03;;;-142.79;100.00
24031;BME280;12240;51.142;22.486;2024-02-26T04:10:12;53229.41;;;-142.79;100.00
24031;BME280;12240;51.142;22.486;2024-02-26T04:12:39;53209.13;;;-142.79;100.00
24031;BME280;12240;51.142;22.486;2024-02-26T04:15:09;53214.51;;;-142.79;100.00
24031;BME280;12240;51.142;22.486;2024-02-26T04:17:37;53226.52;;;-142.79;100.00
24031;BME280;12240;51.142;22.486;2024-02-26T04:20:04;53217.82;;;-142.79;100.00
24031;BME280;12240;51.142;22.486;2024-02-26T04:22:35;53215.75;;;-142.79;100.00
24031;BME280;12240;51.142;22.486;2024-02-26T04:25:02;53204.16;;;-142.79;100.00
24031;BME280;12240;51.142;22.486;2024-02-26T04:27:29;53226.10;;;-142.79;100.00
24031;BME280;12240;51.142;22.486;2024-02-26T04:29:56;53230.66;;;-142.79;100.00
24031;BME280;12240;51.142;22.486;2024-02-26T04:32:23;53216.16;;;-142.79;100.00
24031;BME280;12240;51.142;22.486;2024-02-26T04:34:49;53218.65;;;-142.79;100.00
24031;BME280;12240;51.142;22.486;2024-02-26T04:37:17;53214.51;;;-142.79;100.00
24031;BME280;12240;51.142;22.486;2024-02-26T04:39:43;53219.48;;;-142.79;100.00
24031;BME280;12240;51.142;22.486;2024-02-26T04:42:12;53207.05;;;-142.79;100.00
24031;BME280;12240;51.142;22.486;2024-02-26T04:44:39;53217.41;;;-142.79;100.00
24031;BME280;12240;51.142;22.486;2024-02-26T04:47:06;53230.24;;;-142.79;100.00
24031;BME280;12240;51.142;22.486;2024-02-26T04:49:34;53207.47;;;-142.79;100.00
24031;BME280;12240;51.142;22.486;2024-02-26T04:52:01;53213.27;;;-142.79;100.00
24031;BME280;12240;51.142;22.486;2024-02-26T04:54:28;53213.26;;;-142.79;100.00
24031;BME280;12240;51.142;22.486;2024-02-26T04:56:55;53217.41;;;-142.79;100.00
24031;BME280;12240;51.142;22.486;2024-02-26T04:59:21;53215.34;;;-142.79;100.00
24031;BME280;12240;51.142;22.486;2024-02-26T05:01:48;53216.99;;;-142.79;100.00
24031;BME280;12240;51.142;22.486;2024-02-26T05:04:15;53223.21;;;-142.79;100.00
24031;BME280;12240;51.142;22.486;2024-02-26T05:06:42;53222.79;;;-142.79;100.00
24031;BME280;12240;51.142;22.486;2024-02-26T05:09:09;53220.30;;;-142.79;100.00
24031;BME280;12240;51.142;22.486;2024-02-26T05:11:37;53212.02;;;-142.79;100.00
24031;BME280;12240;51.142;22.486;2024-02-26T05:14:09;53223.21;;;-142.79;100.00
24031;BME280;12240;51.142;22.486;2024-02-26T05:16:36;53209.95;;;-142.79;100.00
24031;BME280;12240;51.142;22.486;2024-02-26T05:19:03;53221.13;;;-142.79;100.00
24031;BME280;12240;51.142;22.486;2024-02-26T05:21:30;53218.24;;;-142.79;100.00
24031;BME280;12240;51.142;22.486;2024-02-26T05:23:56;53201.67;;;-142.79;100.00
24031;BME280;12240;51.142;22.486;2024-02-26T05:26:23;53209.95;;;-142.79;100.00
24031;BME280;12240;51.142;22.486;2024-02-26T05:28:50;53217.82;;;-142.79;100.00
24031;BME280;12240;51.142;22.486;2024-02-26T05:31:17;53224.45;;;-142.79;100.00
24031;BME280;12240;51.142;22.486;2024-02-26T05:33:44;53221.13;;;-142.79;100.00
24031;BME280;12240;51.142;22.486;2024-02-26T05:36:18;53207.88;;;-142.79;100.00
24031;BME280;12240;51.142;22.486;2024-02-26T05:38:45;53224.86;;;-142.79;100.00
24031;BME280;12240;51.142;22.486;2024-02-26T05:41:17;53212.85;;;-142.79;100.00
24031;BME280;12240;51.142;22.486;2024-02-26T05:43:49;53215.34;;;-142.79;100.00
24031;BME280;12240;51.142;22.486;2024-02-26T05:46:20;53219.48;;;-142.79;100.00
24031;BME280;12240;51.142;22.486;2024-02-26T05:48:48;53222.79;;;-142.79;100.00
24031;BME280;12240;51.142;22.486;2024-02-26T05:51:15;53209.54;;;-142.79;100.00
24031;BME280;12240;51.142;22.486;2024-02-26T05:53:42;53221.13;;;-142.79;100.00
24031;BME280;12240;51.142;22.486;2024-02-26T05:56:09;53228.18;;;-142.79;100.00
24031;BME280;12240;51.142;22.486;2024-02-26T05:58:36;53203.74;;;-142.79;100.00
24031;BME280;12240;51.142;22.486;2024-02-26T06:01:03;53213.26;;;-142.79;100.00
24031;BME280;12240;51.142;22.486;2024-02-26T06:03:30;53229.00;;;-142.79;100.00
24031;BME280;12240;51.142;22.486;2024-02-26T06:05:57;53222.38;;;-142.79;100.00
24031;BME280;12240;51.142;22.486;2024-02-26T06:08:24;53212.85;;;-142.79;100.00
24031;BME280;12240;51.142;22.486;2024-02-26T06:10:50;53216.58;;;-142.79;100.00
24031;BME280;12240;51.142;22.486;2024-02-26T06:13:17;53224.03;;;-142.79;100.00
24031;BME280;12240;51.142;22.486;2024-02-26T06:15:44;53221.96;;;-142.79;100.00
24031;BME280;12240;51.142;22.486;2024-02-26T06:18:11;53234.80;;;-142.79;100.00
24031;BME280;12240;51.142;22.486;2024-02-26T06:20:37;53227.76;;;-142.79;100.00
24031;BME280;12240;51.142;22.486;2024-02-26T06:23:04;53223.62;;;-142.79;100.00
24031;BME280;12240;51.142;22.486;2024-02-26T06:25:31;53228.18;;;-142.79;100.00
24031;BME280;12240;51.142;22.486;2024-02-26T06:27:58;53248.05;;;-142.79;100.00
24031;BME280;12240;51.142;22.486;2024-02-26T06:30:24;53233.55;;;-142.79;100.00
24031;BME280;12240;51.142;22.486;2024-02-26T06:32:51;53217.82;;;-142.79;100.00
24031;BME280;12240;51.142;22.486;2024-02-26T06:35:18;53227.34;;;-142.79;100.00
24031;BME280;12240;51.142;22.486;2024-02-26T06:37:45;53225.27;;;-142.79;100.00
24031;BME280;12240;51.142;22.486;2024-02-26T06:40:12;53229.00;;;-142.79;100.00
24031;BME280;12240;51.142;22.486;2024-02-26T06:42:39;53215.75;;;-142.79;100.00
24031;BME280;12240;51.142;22.486;2024-02-26T06:45:06;53219.48;;;-142.79;100.00
24031;BME280;12240;51.142;22.486;2024-02-26T06:47:34;53222.79;;;-142.79;100.00
24031;BME280;12240;51.142;22.486;2024-02-26T06:50:01;53226.52;;;-142.79;100.00
24031;BME280;12240;51.142;22.486;2024-02-26T06:52:28;53224.45;;;-142.79;100.00
24031;BME280;12240;51.142;22.486;2024-02-26T06:54:55;53224.04;;;-142.79;100.00
24031;BME280;12240;51.142;22.486;2024-02-26T06:57:21;53221.13;;;-142.79;100.00
24031;BME280;12240;51.142;22.486;2024-02-26T06:59:48;53218.24;;;-142.79;100.00
24031;BME280;12240;51.142;22.486;2024-02-26T07:02:15;53214.93;;;-142.79;100.00
24031;BME280;12240;51.142;22.486;2024-02-26T07:04:43;53224.03;;;-142.79;100.00
24031;BME280;12240;51.142;22.486;2024-02-26T07:07:10;53213.27;;;-142.79;100.00
24031;BME280;12240;51.142;22.486;2024-02-26T07:09:37;53241.84;;;-142.79;100.00
24031;BME280;12240;51.142;22.486;2024-02-26T07:12:04;53224.45;;;-142.79;100.00
24031;BME280;12240;51.142;22.486;2024-02-26T07:14:31;53218.24;;;-142.79;100.00
24031;BME280;12240;51.142;22.486;2024-02-26T07:16:59;53212.02;;;-142.79;100.00
24031;BME280;12240;51.142;22.486;2024-02-26T07:19:25;53243.50;;;-142.79;100.00
24031;BME280;12240;51.142;22.486;2024-02-26T07:21:52;53237.70;;;-142.79;100.00
24031;BME280;12240;51.142;22.486;2024-02-26T07:24:19;53229.01;;;-142.79;100.00
24031;BME280;12240;51.142;22.486;2024-02-26T07:26:46;53231.90;;;-142.79;100.00
24031;BME280;12240;51.142;22.486;2024-02-26T07:29:12;53214.51;;;-142.79;100.00
24031;BME280;12240;51.142;22.486;2024-02-26T07:31:39;53235.22;;;-142.79;100.00
24031;BME280;12240;51.142;22.486;2024-02-26T07:34:06;53217.82;;;-142.79;100.00
24031;BME280;12240;51.142;22.486;2024-02-26T07:36:33;53223.21;;;-142.79;100.00
24031;BME280;12240;51.142;22.486;2024-02-26T07:38:59;53236.05;;;-142.79;100.00
24031;BME280;12240;51.142;22.486;2024-02-26T07:41:27;53233.98;;;-142.79;100.00
24031;BME280;12240;51.142;22.486;2024-02-26T07:43:54;53239.77;;;-142.79;100.00
24031;BME280;12240;51.142;22.486;2024-02-26T07:46:21;53230.24;;;-142.79;100.00
24031;BME280;12240;51.142;22.486;2024-02-26T07:48:48;53233.55;;;-142.79;100.00
24031;BME280;12240;51.142;22.486;2024-02-26T07:51:15;53227.34;;;-142.79;100.00
24031;BME280;12240;51.142;22.486;2024-02-26T07:53:42;53241.84;;;-142.79;100.00
24031;BME280;12240;51.142;22.486;2024-02-26T07:56:09;53222.38;;;-142.79;100.00
24031;BME280;12240;51.142;22.486;2024-02-26T07:58:36;53233.55;;;-142.79;100.00
24031;BME280;12240;51.142;22.486;2024-02-26T08:01:03;53219.89;;;-142.79;100.00
24031;BME280;12240;51.142;22.486;2024-02-26T08:03:30;53226.10;;;-142.79;100.00
24031;BME280;12240;51.142;22.486;2024-02-26T08:05:57;53229.42;;;-142.79;100.00
24031;BME280;12240;51.142;22.486;2024-02-26T08:08:23;53234.80;;;-142.79;100.00
24031;BME280;12240;51.142;22.486;2024-02-26T08:10:50;53228.59;;;-142.79;100.00
24031;BME280;12240;51.142;22.486;2024-02-26T08:13:17;53250.95;;;-142.79;100.00
24031;BME280;12240;51.142;22.486;2024-02-26T08:15:44;53216.57;;;-142.79;100.00
24031;BME280;12240;51.142;22.486;2024-02-26T08:18:10;53238.12;;;-142.79;100.00
24031;BME280;12240;51.142;22.486;2024-02-26T08:20:37;53234.39;;;-142.79;100.00
24031;BME280;12240;51.142;22.486;2024-02-26T08:23:04;53231.49;;;-142.79;100.00
24031;BME280;12240;51.142;22.486;2024-02-26T08:25:30;53240.19;;;-142.79;100.00
24031;BME280;12240;51.142;22.486;2024-02-26T08:27:57;53225.27;;;-142.79;100.00
24031;BME280;12240;51.142;22.486;2024-02-26T08:30:24;53238.11;;;-142.79;100.00
24031;BME280;12240;51.142;22.486;2024-02-26T08:32:52;53234.39;;;-142.79;100.00
24031;BME280;12240;51.142;22.486;2024-02-26T08:35:19;53234.80;;;-142.79;100.00
24031;BME280;12240;51.142;22.486;2024-02-26T08:37:47;53247.23;;;-142.79;100.00
24031;BME280;12240;51.142;22.486;2024-02-26T08:40:15;53250.13;;;-142.79;100.00
24031;BME280;12240;51.142;22.486;2024-02-26T08:42:42;53238.11;;;-142.79;100.00
24031;BME280;12240;51.142;22.486;2024-02-26T08:45:09;53255.09;;;-142.79;100.00
24031;BME280;12240;51.142;22.486;2024-02-26T08:47:37;53257.99;;;-142.79;100.00
24031;BME280;12240;51.142;22.486;2024-02-26T08:50:04;53273.73;;;-142.79;100.00
24031;BME280;12240;51.142;22.486;2024-02-26T08:52:32;53284.08;;;-142.79;100.00
24031;BME280;12240;51.142;22.486;2024-02-26T08:54:59;53257.99;;;-142.79;100.00
24031;BME280;12240;51.142;22.486;2024-02-26T08:57:26;53270.84;;;-142.79;100.00
24031;BME280;12240;51.142;22.486;2024-02-26T08:59:56;53279.53;;;-142.79;100.00
24031;BME280;12240;51.142;22.486;2024-02-26T09:02:23;53275.80;;;-142.79;100.00
24031;BME280;12240;51.142;22.486;2024-02-26T09:04:50;53281.19;;;-142.79;100.00
24031;BME280;12240;51.142;22.486;2024-02-26T09:07:20;53269.18;;;-142.79;100.00
24031;BME280;12240;51.142;22.486;2024-02-26T09:09:47;53291.95;;;-142.79;100.00
24031;BME280;12240;51.142;22.486;2024-02-26T09:12:14;53287.40;;;-142.79;100.00
24031;BME280;12240;51.142;22.486;2024-02-26T09:14:41;53294.02;;;-142.79;100.00
24031;BME280;12240;51.142;22.486;2024-02-26T09:17:07;53267.52;;;-142.79;100.00
24031;BME280;12240;51.142;22.486;2024-02-26T09:19:34;53306.04;;;-142.79;100.00
24031;BME280;12240;51.142;22.486;2024-02-26T09:22:01;53285.32;;;-142.79;100.00
24031;BME280;12240;51.142;22.486;2024-02-26T09:24:28;53301.07;;;-142.79;100.00
24031;BME280;12240;51.142;22.486;2024-02-26T09:26:55;53301.06;;;-142.79;100.00
24031;BME280;12240;51.142;22.486;2024-02-26T09:29:22;53291.13;;;-142.79;100.00
24031;BME280;12240;51.142;22.486;2024-02-26T09:31:49;53303.55;;;-142.79;100.00
24031;BME280;12240;51.142;22.486;2024-02-26T09:34:16;53291.54;;;-142.79;100.00
24031;BME280;12240;51.142;22.486;2024-02-26T09:36:43;53274.56;;;-142.79;100.00
24031;BME280;12240;51.142;22.486;2024-02-26T09:39:10;53294.85;;;-142.79;100.00
24031;BME280;12240;51.142;22.486;2024-02-26T09:41:38;53287.39;;;-142.79;100.00
24031;BME280;12240;51.142;22.486;2024-02-26T09:44:05;53296.09;;;-142.79;100.00
24031;BME280;12240;51.142;22.486;2024-02-26T09:46:33;53277.88;;;-142.79;100.00
24031;BME280;12240;51.142;22.486;2024-02-26T09:49:00;53277.88;;;-142.79;100.00
24031;BME280;12240;51.142;22.486;2024-02-26T09:51:27;53286.16;;;-142.79;100.00
24031;BME280;12240;51.142;22.486;2024-02-26T09:53:56;53294.44;;;-142.79;100.00
24031;BME280;12240;51.142;22.486;2024-02-26T09:56:26;53288.23;;;-142.79;100.00
24031;BME280;12240;51.142;22.486;2024-02-26T09:58:54;53298.16;;;-142.79;100.00
24031;BME280;12240;51.142;22.486;2024-02-26T10:01:22;53294.44;;;-142.79;100.00
24031;BME280;12240;51.142;22.486;2024-02-26T10:04:10;53284.08;;;-142.79;100.00
24031;BME280;12240;51.142;22.486;2024-02-26T10:06:40;53279.95;;;-142.79;100.00
24031;BME280;12240;51.142;22.486;2024-02-26T10:09:09;53265.45;;;-142.79;100.00
24031;BME280;12240;51.142;22.486;2024-02-26T10:11:37;53293.20;;;-142.79;100.00
24031;BME280;12240;51.142;22.486;2024-02-26T10:14:24;53286.57;;;-142.79;100.00
24031;BME280;12240;51.142;22.486;2024-02-26T10:16:51;53279.12;;;-142.79;100.00
24031;BME280;12240;51.142;22.486;2024-02-26T10:19:28;53291.54;;;-142.79;100.00
24031;BME280;12240;51.142;22.486;2024-02-26T10:21:57;53285.74;;;-142.79;100.00
24031;BME280;12240;51.142;22.486;2024-02-26T10:24:25;53300.24;;;-142.79;100.00
24031;BME280;12240;51.142;22.486;2024-02-26T10:26:52;53290.71;;;-142.79;100.00
24031;BME280;12240;51.142;22.486;2024-02-26T10:29:22;53272.91;;;-142.79;100.00
24031;BME280;12240;51.142;22.486;2024-02-26T10:31:53;53288.23;;;-142.79;100.00
24031;BME280;12240;51.142;22.486;2024-02-26T10:34:20;53302.30;;;-142.79;100.00
24031;BME280;12240;51.142;22.486;2024-02-26T10:36:48;53296.10;;;-142.79;100.00
24031;BME280;12240;51.142;22.486;2024-02-26T10:39:20;53298.99;;;-142.79;100.00
24031;BME280;12240;51.142;22.486;2024-02-26T10:41:48;53300.65;;;-142.79;100.00
24031;BME280;12240;51.142;22.486;2024-02-26T10:44:15;53298.17;;;-142.79;100.00
24031;BME280;12240;51.142;22.486;2024-02-26T10:46:47;53301.48;;;-142.79;100.00
24031;BME280;12240;51.142;22.486;2024-02-26T10:49:15;53306.86;;;-142.79;100.00
24031;BME280;12240;51.142;22.486;2024-02-26T10:51:50;53319.29;;;-142.79;100.00
24031;BME280;12240;51.142;22.486;2024-02-26T10:54:19;53371.06;;;-142.79;100.00
24031;BME280;12240;51.142;22.486;2024-02-26T10:56:49;53366.09;;;-142.79;100.00
24031;BME280;12240;51.142;22.486;2024-02-26T10:59:17;53350.35;;;-142.79;100.00
24031;BME280;12240;51.142;22.486;2024-02-26T11:01:48;53401.71;;;-142.79;100.00
24031;BME280;12240;51.142;22.486;2024-02-26T11:04:17;53390.52;;;-142.79;100.00
24031;BME280;12240;51.142;22.486;2024-02-26T11:06:47;53375.20;;;-142.79;100.00
24031;BME280;12240;51.142;22.486;2024-02-26T11:09:14;53381.41;;;-142.79;100.00
24031;BME280;12240;51.142;22.486;2024-02-26T11:11:42;53389.70;;;-142.79;100.00
24031;BME280;12240;51.142;22.486;2024-02-26T11:14:09;53365.68;;;-142.79;100.00
24031;BME280;12240;51.142;22.486;2024-02-26T11:16:38;53396.74;;;-142.79;100.00
24031;BME280;12240;51.142;22.486;2024-02-26T11:19:08;53379.34;;;-142.79;100.00
24031;BME280;12240;51.142;22.486;2024-02-26T11:21:37;53380.59;;;-142.79;100.00
24031;BME280;12240;51.142;22.486;2024-02-26T11:24:13;53424.90;;;-142.79;100.00
24031;BME280;12240;51.142;22.486;2024-02-26T11:26:53;53401.71;;;-142.79;100.00
24031;BME280;12240;51.142;22.486;2024-02-26T11:29:44;53389.70;;;-142.79;100.00
24031;BME280;12240;51.142;22.486;2024-02-26T11:32:13;53410.41;;;-142.79;100.00
24031;BME280;12240;51.142;22.486;2024-02-26T11:34:42;53417.45;;;-142.79;100.00
24031;BME280;12240;51.142;22.486;2024-02-26T11:37:14;53394.67;;;-142.79;100.00
24031;BME280;12240;51.142;22.486;2024-02-26T11:39:42;53411.65;;;-142.79;100.00
24031;BME280;12240;51.142;22.486;2024-02-26T11:42:14;53384.73;;;-142.79;100.00
24031;BME280;12240;51.142;22.486;2024-02-26T11:44:41;53377.27;;;-142.79;100.00
24031;BME280;12240;51.142;22.486;2024-02-26T11:47:12;53371.89;;;-142.79;100.00
24031;BME280;12240;51.142;22.486;2024-02-26T11:49:39;53382.24;;;-142.79;100.00
24031;BME280;12240;51.142;22.486;2024-02-26T11:52:08;53406.68;;;-142.79;100.00
24031;BME280;12240;51.142;22.486;2024-02-26T11:54:49;53431.11;;;-142.79;100.00
24031;BME280;12240;51.142;22.486;2024-02-26T12:05:16;53352.84;;;-142.79;100.00
24031;BME280;12240;51.142;22.486;2024-02-26T12:07:47;53409.57;;;-142.79;100.00
24031;BME280;12240;51.142;22.486;2024-02-26T12:10:26;53402.13;;;-142.79;100.00
24031;BME280;12240;51.142;22.486;2024-02-26T12:13:15;53406.26;;;-142.79;100.00
24031;BME280;12240;51.142;22.486;2024-02-26T12:15:55;53392.19;;;-142.79;100.00
24031;BME280;12240;51.142;22.486;2024-02-26T12:18:22;53359.88;;;-142.79;100.00
24031;BME280;12240;51.142;22.486;2024-02-26T12:21:03;53368.57;;;-142.79;100.00
24031;BME280;12240;51.142;22.486;2024-02-26T12:23:30;53395.91;;;-142.79;100.00
24031;BME280;12240;51.142;22.486;2024-02-26T12:26:01;53399.64;;;-142.79;100.00
24031;BME280;12240;51.142;22.486;2024-02-26T12:28:33;53391.77;;;-142.79;100.00
24031;BME280;12240;51.142;22.486;2024-02-26T12:30:59;53398.39;;;-142.79;100.00
24031;BME280;12240;51.142;22.486;2024-02-26T12:33:27;53425.73;;;-142.79;100.00
24031;BME280;12240;51.142;22.486;2024-02-26T12:35:55;53403.36;;;-142.79;100.00
24031;BME280;12240;51.142;22.486;2024-02-26T12:38:22;53397.56;;;-142.79;100.00